createdAt,value
2023-04-02T00:00:21.739Z,45.44238
2023-04-02T00:00:51.738Z,45.4873
2023-04-02T00:01:21.742Z,45.40137
2023-04-02T00:01:51.763Z,45.26172
2023-04-02T00:02:21.783Z,45.54102
2023-04-02T00:02:51.812Z,45.88379
2023-04-02T00:03:21.787Z,45.66602
2023-04-02T00:03:51.767Z,46
2023-04-02T00:04:21.733Z,46.06152
2023-04-02T00:04:51.735Z,46.125
2023-04-02T00:05:21.745Z,45.7041
2023-04-02T00:05:51.754Z,45.30078
2023-04-02T00:06:21.743Z,44.95117
2023-04-02T00:06:51.745Z,44.92676
2023-04-02T00:07:21.736Z,44.66016
2023-04-02T00:07:51.736Z,44.51172
2023-04-02T00:08:21.741Z,44.22656
2023-04-02T00:08:51.736Z,44.28906
2023-04-02T00:09:21.745Z,44.7373
2023-04-02T00:09:51.741Z,44.62012
2023-04-02T00:10:21.740Z,44.63379
2023-04-02T00:10:51.758Z,45.34375
2023-04-02T00:11:21.740Z,44.95996
2023-04-02T00:11:51.741Z,44.94238
2023-04-02T00:12:21.737Z,44.97852
2023-04-02T00:12:51.737Z,44.88867
2023-04-02T00:13:21.742Z,44.59668
2023-04-02T00:13:51.742Z,44.375
2023-04-02T00:14:21.748Z,44.19629
2023-04-02T00:14:51.756Z,44.19043
2023-04-02T00:15:21.738Z,44.09766
2023-04-02T00:15:51.747Z,44.2959
2023-04-02T00:16:21.773Z,44.14648
2023-04-02T00:16:51.811Z,43.97852
2023-04-02T00:17:21.753Z,43.99316
2023-04-02T00:17:51.757Z,44.81836
2023-04-02T00:18:21.768Z,44.82715
2023-04-02T00:18:51.745Z,44.72559
2023-04-02T00:19:21.743Z,44.65723
2023-04-02T00:19:51.768Z,44.54883
2023-04-02T00:20:21.755Z,44.57129
2023-04-02T00:20:51.741Z,44.71289
2023-04-02T00:21:21.740Z,44.31348
2023-04-02T00:21:51.738Z,44.61719
2023-04-02T00:22:21.740Z,44.37793
2023-04-02T00:22:51.758Z,44.42969
2023-04-02T00:23:21.744Z,44.94434
2023-04-02T00:23:51.740Z,45.40137
2023-04-02T00:24:21.751Z,45.16895
2023-04-02T00:24:51.752Z,45.58203
2023-04-02T00:25:21.746Z,45.7168
2023-04-02T00:25:51.748Z,45.36719
2023-04-02T00:26:21.753Z,45.28125
2023-04-02T00:26:51.741Z,45.13086
2023-04-02T00:27:21.739Z,45.02539
2023-04-02T00:27:51.743Z,45.29297
2023-04-02T00:28:21.751Z,45.21875
2023-04-02T00:28:51.742Z,45.05469
2023-04-02T00:29:21.753Z,44.9043
2023-04-02T00:29:51.751Z,45.35938
2023-04-02T00:30:21.748Z,45.60645
2023-04-02T00:30:51.745Z,44.9707
2023-04-02T00:31:21.742Z,44.4873
2023-04-02T00:31:51.769Z,44.88672
2023-04-02T00:32:21.842Z,44.80078
2023-04-02T00:32:51.799Z,44.36328
2023-04-02T00:33:21.746Z,44.26074
2023-04-02T00:33:51.746Z,43.95313
2023-04-02T00:34:21.741Z,43.86328
2023-04-02T00:34:51.750Z,43.80469
2023-04-02T00:35:21.740Z,43.68066
2023-04-02T00:35:51.792Z,43.92383
2023-04-02T00:36:21.776Z,43.85254
2023-04-02T00:36:51.748Z,43.57617
2023-04-02T00:37:21.749Z,43.85645
2023-04-02T00:37:51.758Z,44.04688
2023-04-02T00:38:21.747Z,44.4375
2023-04-02T00:38:51.749Z,45.35059
2023-04-02T00:39:21.756Z,45.01953
2023-04-02T00:39:51.745Z,45.08789
2023-04-02T00:40:21.744Z,45.13574
2023-04-02T00:40:51.749Z,44.53027
2023-04-02T00:41:21.746Z,44.00195
2023-04-02T00:41:51.745Z,43.94727
2023-04-02T00:42:21.744Z,43.99512
2023-04-02T00:42:51.758Z,43.73828
2023-04-02T00:43:21.743Z,44.00293
2023-04-02T00:43:51.745Z,43.49902
2023-04-02T00:44:22.059Z,43.0918
2023-04-02T00:44:51.745Z,42.92383
2023-04-02T00:45:21.751Z,43.30371
2023-04-02T00:45:51.756Z,43.57324
2023-04-02T00:46:21.802Z,43.64648
2023-04-02T00:46:51.752Z,43.65039
2023-04-02T00:47:21.750Z,43.7959
2023-04-02T00:47:51.774Z,43.72559
2023-04-02T00:48:21.748Z,43.65723
2023-04-02T00:48:51.749Z,43.82617
2023-04-02T00:49:21.747Z,44.2334
2023-04-02T00:49:51.750Z,43.91797
2023-04-02T00:50:21.749Z,43.75781
2023-04-02T00:50:51.745Z,44.02637
2023-04-02T00:51:21.749Z,44.01367
2023-04-02T00:51:51.752Z,43.66895
2023-04-02T00:52:21.747Z,43.71484
2023-04-02T00:52:51.748Z,44.10645
2023-04-02T00:53:21.759Z,43.52539
2023-04-02T00:53:51.750Z,43.43066
2023-04-02T00:54:21.748Z,43.5293
2023-04-02T00:54:51.747Z,43.53906
2023-04-02T00:55:21.756Z,43.41016
2023-04-02T00:55:51.749Z,43.60645
2023-04-02T00:56:21.748Z,43.83496
2023-04-02T00:56:51.789Z,43.53125
2023-04-02T00:57:21.792Z,43.62988
2023-04-02T00:57:51.752Z,44.13867
2023-04-02T00:58:21.754Z,43.9873
2023-04-02T00:58:51.760Z,44.3457
2023-04-02T00:59:21.756Z,44.68066
2023-04-02T00:59:51.752Z,43.79199
2023-04-02T01:00:21.761Z,43.72559
2023-04-02T01:00:51.761Z,43.58496
2023-04-02T01:01:21.857Z,43.49707
2023-04-02T01:01:51.823Z,43.79688
2023-04-02T01:02:21.765Z,43.97754
2023-04-02T01:02:51.861Z,44.00684
2023-04-02T01:03:21.803Z,44.1543
2023-04-02T01:03:51.791Z,44.29297
2023-04-02T01:04:21.748Z,44.46289
2023-04-02T01:04:51.747Z,44.57715
2023-04-02T01:05:21.750Z,44.72363
2023-04-02T01:05:51.760Z,45.17969
2023-04-02T01:06:21.747Z,45.56836
2023-04-02T01:06:51.757Z,46.23828
2023-04-02T01:07:21.757Z,46.88477
2023-04-02T01:07:51.754Z,48.27832
2023-04-02T01:08:21.754Z,49.83887
2023-04-02T01:08:51.753Z,51.29297
2023-04-02T01:09:21.746Z,51.94238
2023-04-02T01:09:51.750Z,52.58203
2023-04-02T01:10:21.752Z,52.68848
2023-04-02T01:10:51.748Z,52.91602
2023-04-02T01:11:21.748Z,52.84473
2023-04-02T01:11:51.752Z,52.43262
2023-04-02T01:12:21.756Z,52.63965
2023-04-02T01:12:51.752Z,52.24805
2023-04-02T01:13:21.745Z,52.75098
2023-04-02T01:13:51.748Z,53.45703
2023-04-02T01:14:21.813Z,53.24609
2023-04-02T01:14:51.754Z,53.11523
2023-04-02T01:15:21.788Z,53.07422
2023-04-02T01:15:51.774Z,53.09863
2023-04-02T01:16:21.800Z,53.04785
2023-04-02T01:16:51.755Z,52.93262
2023-04-02T01:17:21.749Z,52.9248
2023-04-02T01:17:51.789Z,53.05273
2023-04-02T01:18:21.748Z,53.04199
2023-04-02T01:18:51.752Z,53.15039
2023-04-02T01:19:21.788Z,53.08691
2023-04-02T01:19:51.751Z,53.49316
2023-04-02T01:20:21.746Z,53.48633
2023-04-02T01:20:51.747Z,53.81152
2023-04-02T01:21:21.754Z,53.94336
2023-04-02T01:21:51.755Z,53.58398
2023-04-02T01:22:21.749Z,52.69922
2023-04-02T01:22:51.750Z,52.94238
2023-04-02T01:23:21.754Z,52.69629
2023-04-02T01:23:51.749Z,52.25879
2023-04-02T01:24:21.750Z,51.96289
2023-04-02T01:24:51.759Z,51.84082
2023-04-02T01:25:21.758Z,52.0625
2023-04-02T01:25:51.750Z,52.43359
2023-04-02T01:26:21.753Z,51.95605
2023-04-02T01:26:51.757Z,51.6709
2023-04-02T01:27:21.750Z,51.6748
2023-04-02T01:27:51.751Z,51.7373
2023-04-02T01:28:21.750Z,51.82813
2023-04-02T01:28:51.760Z,51.62891
2023-04-02T01:29:21.756Z,51.35742
2023-04-02T01:29:51.763Z,51.20508
2023-04-02T01:30:21.752Z,51.18457
2023-04-02T01:30:51.750Z,51.2793
2023-04-02T01:31:21.774Z,51.33105
2023-04-02T01:31:51.895Z,50.96582
2023-04-02T01:32:21.762Z,50.46387
2023-04-02T01:32:51.801Z,50.69238
2023-04-02T01:33:21.748Z,50.66113
2023-04-02T01:33:51.748Z,50.56152
2023-04-02T01:34:21.945Z,50.5293
2023-04-02T01:34:51.752Z,50.38184
2023-04-02T01:35:21.751Z,50.1709
2023-04-02T01:35:51.800Z,50.00586
2023-04-02T01:36:21.796Z,49.78613
2023-04-02T01:36:51.749Z,50.1543
2023-04-02T01:37:21.747Z,50.23535
2023-04-02T01:37:51.746Z,50.20898
2023-04-02T01:38:21.752Z,50.71191
2023-04-02T01:38:51.765Z,50.60352
2023-04-02T01:39:21.747Z,50.75488
2023-04-02T01:39:51.759Z,50.5293
2023-04-02T01:40:21.749Z,50.3916
2023-04-02T01:40:51.752Z,50.30566
2023-04-02T01:41:21.745Z,50.3623
2023-04-02T01:41:51.748Z,50.33105
2023-04-02T01:42:21.753Z,50.22754
2023-04-02T01:42:51.759Z,50.23926
2023-04-02T01:43:21.770Z,50.60352
2023-04-02T01:43:51.759Z,50.94141
2023-04-02T01:44:21.746Z,51.22363
2023-04-02T01:44:51.747Z,51.1123
2023-04-02T01:45:21.789Z,51.07813
2023-04-02T01:45:51.751Z,50.93945
2023-04-02T01:46:21.787Z,51.00781
2023-04-02T01:46:51.800Z,50.74219
2023-04-02T01:47:21.747Z,50.72461
2023-04-02T01:47:51.768Z,51.0957
2023-04-02T01:48:21.753Z,50.96777
2023-04-02T01:48:51.747Z,51.06445
2023-04-02T01:49:21.753Z,50.8291
2023-04-02T01:49:51.750Z,50.75488
2023-04-02T01:50:21.748Z,50.77734
2023-04-02T01:50:51.747Z,50.56445
2023-04-02T01:51:21.748Z,50.58789
2023-04-02T01:51:51.746Z,50.60059
2023-04-02T01:52:21.748Z,50.64648
2023-04-02T01:52:51.744Z,50.5957
2023-04-02T01:53:21.750Z,50.50195
2023-04-02T01:53:51.755Z,50.35352
2023-04-02T01:54:21.750Z,50.52734
2023-04-02T01:54:51.751Z,50.84277
2023-04-02T01:55:21.755Z,50.83203
2023-04-02T01:55:51.752Z,50.52051
2023-04-02T01:56:21.748Z,50.54199
2023-04-02T01:56:51.790Z,50.56348
2023-04-02T01:57:21.809Z,50.49902
2023-04-02T01:57:51.749Z,50.5957
2023-04-02T01:58:21.752Z,50.74414
2023-04-02T01:58:51.749Z,51.04102
2023-04-02T01:59:21.749Z,51.22949
2023-04-02T01:59:51.752Z,51.20508
2023-04-02T02:00:21.752Z,51.26563
2023-04-02T02:00:51.821Z,51.47949
2023-04-02T02:01:21.817Z,51.43359
2023-04-02T02:01:51.792Z,51.18945
2023-04-02T02:02:21.821Z,51.2041
2023-04-02T02:02:51.782Z,51.21484
2023-04-02T02:03:21.893Z,50.99121
2023-04-02T02:03:51.754Z,50.89453
2023-04-02T02:04:21.763Z,50.85156
2023-04-02T02:04:51.750Z,50.73535
2023-04-02T02:05:21.749Z,50.8125
2023-04-02T02:05:51.763Z,50.95508
2023-04-02T02:06:21.749Z,50.84082
2023-04-02T02:06:51.748Z,50.63867
2023-04-02T02:07:21.754Z,50.65527
2023-04-02T02:07:51.749Z,50.7627
2023-04-02T02:08:21.752Z,50.90723
2023-04-02T02:08:51.751Z,51.48633
2023-04-02T02:09:21.750Z,51.33691
2023-04-02T02:09:51.754Z,51.56445
2023-04-02T02:10:21.770Z,51.70801
2023-04-02T02:10:51.749Z,51.71875
2023-04-02T02:11:21.749Z,52.01953
2023-04-02T02:11:51.758Z,52
2023-04-02T02:12:21.763Z,51.8584
2023-04-02T02:12:51.752Z,51.87891
2023-04-02T02:13:21.755Z,51.46191
2023-04-02T02:13:51.785Z,51.33594
2023-04-02T02:14:21.763Z,51.66895
2023-04-02T02:14:51.763Z,51.77246
2023-04-02T02:15:21.762Z,51.87402
2023-04-02T02:15:51.756Z,51.51953
2023-04-02T02:16:21.879Z,51.65039
2023-04-02T02:16:51.757Z,51.62891
2023-04-02T02:17:21.774Z,51.81641
2023-04-02T02:17:51.795Z,52.0918
2023-04-02T02:18:21.759Z,51.89746
2023-04-02T02:18:51.763Z,51.47168
2023-04-02T02:19:21.788Z,51.04688
2023-04-02T02:19:51.786Z,50.81836
2023-04-02T02:20:21.758Z,50.63379
2023-04-02T02:20:51.758Z,50.60938
2023-04-02T02:21:21.756Z,50.30566
2023-04-02T02:21:51.756Z,50.19336
2023-04-02T02:22:21.755Z,50.6582
2023-04-02T02:22:51.764Z,50.82715
2023-04-02T02:23:21.753Z,50.99707
2023-04-02T02:23:51.757Z,51.00879
2023-04-02T02:24:21.767Z,50.83789
2023-04-02T02:24:51.759Z,50.48633
2023-04-02T02:25:21.754Z,50.49707
2023-04-02T02:25:51.793Z,50.82813
2023-04-02T02:26:21.773Z,50.90039
2023-04-02T02:26:51.754Z,51.23828
2023-04-02T02:27:21.758Z,51.50098
2023-04-02T02:27:51.768Z,51.20996
2023-04-02T02:28:21.766Z,51.63477
2023-04-02T02:28:51.758Z,51.75879
2023-04-02T02:29:21.759Z,51.30957
2023-04-02T02:29:51.767Z,51.22168
2023-04-02T02:30:21.781Z,50.92676
2023-04-02T02:30:51.767Z,50.81152
2023-04-02T02:31:21.790Z,50.67773
2023-04-02T02:31:51.765Z,50.53027
2023-04-02T02:32:21.804Z,50.04102
2023-04-02T02:32:51.814Z,49.79199
2023-04-02T02:33:21.773Z,50.00488
2023-04-02T02:33:51.800Z,49.97559
2023-04-02T02:34:21.763Z,49.74219
2023-04-02T02:34:51.760Z,49.79492
2023-04-02T02:35:21.793Z,49.28125
2023-04-02T02:35:51.778Z,49.71191
2023-04-02T02:36:21.776Z,49.65625
2023-04-02T02:36:51.757Z,49.76172
2023-04-02T02:37:21.768Z,49.86914
2023-04-02T02:37:51.759Z,50.12305
2023-04-02T02:38:21.763Z,49.90918
2023-04-02T02:38:53.182Z,50.41406
2023-04-02T02:39:21.759Z,49.95508
2023-04-02T02:39:51.764Z,49.67676
2023-04-02T02:40:21.759Z,49.70898
2023-04-02T02:40:51.763Z,49.28027
2023-04-02T02:41:21.764Z,49.70898
2023-04-02T02:41:51.763Z,49.87012
2023-04-02T02:42:21.759Z,49.97754
2023-04-02T02:42:51.771Z,49.75
2023-04-02T02:43:21.760Z,50.03809
2023-04-02T02:43:51.767Z,50.00098
2023-04-02T02:44:21.783Z,50.62598
2023-04-02T02:44:51.775Z,50.31348
2023-04-02T02:45:21.800Z,50.1377
2023-04-02T02:45:51.775Z,50.05078
2023-04-02T02:46:21.780Z,50.12305
2023-04-02T02:46:51.759Z,50.10352
2023-04-02T02:47:21.881Z,49.46484
2023-04-02T02:47:51.804Z,48.66895
2023-04-02T02:48:21.758Z,48.69629
2023-04-02T02:48:51.757Z,48.43262
2023-04-02T02:49:21.765Z,48.03906
2023-04-02T02:49:51.757Z,48.36621
2023-04-02T02:50:21.773Z,48.49316
2023-04-02T02:50:51.766Z,48.14258
2023-04-02T02:51:21.761Z,47.87598
2023-04-02T02:51:51.760Z,48.21777
2023-04-02T02:52:21.756Z,48.42871
2023-04-02T02:52:51.762Z,48.08398
2023-04-02T02:53:21.763Z,47.7666
2023-04-02T02:53:51.763Z,47.10645
2023-04-02T02:54:21.758Z,46.76758
2023-04-02T02:54:51.774Z,46.83984
2023-04-02T02:55:21.758Z,46.93848
2023-04-02T02:55:51.768Z,46.18457
2023-04-02T02:56:21.761Z,46.39453
2023-04-02T02:56:51.772Z,46.33691
2023-04-02T02:57:21.780Z,46.39063
2023-04-02T02:57:51.767Z,46.3877
2023-04-02T02:58:21.760Z,46.80469
2023-04-02T02:58:51.767Z,46.55664
2023-04-02T02:59:21.783Z,46.90527
2023-04-02T02:59:51.780Z,46.99805
2023-04-02T03:00:21.762Z,46.83398
2023-04-02T03:00:51.765Z,46.89551
2023-04-02T03:01:21.778Z,47.27734
2023-04-02T03:01:51.758Z,47.35938
2023-04-02T03:02:21.839Z,47.3252
2023-04-02T03:02:51.846Z,46.85059
2023-04-02T03:03:21.935Z,46.69824
2023-04-02T03:03:51.917Z,46.80566
2023-04-02T03:04:21.789Z,46.8291
2023-04-02T03:04:51.760Z,46.7002
2023-04-02T03:05:21.759Z,47.19336
2023-04-02T03:05:51.762Z,47.42188
2023-04-02T03:06:21.776Z,46.72656
2023-04-02T03:06:51.761Z,46.29297
2023-04-02T03:07:21.760Z,45.56543
2023-04-02T03:07:51.761Z,45.16992
2023-04-02T03:08:21.757Z,45.0752
2023-04-02T03:08:51.764Z,44.72168
2023-04-02T03:09:21.762Z,44.21484
2023-04-02T03:09:51.771Z,44.22266
2023-04-02T03:10:21.759Z,44.59277
2023-04-02T03:10:51.762Z,44.45508
2023-04-02T03:11:21.764Z,44.32813
2023-04-02T03:11:51.760Z,44.24805
2023-04-02T03:12:21.763Z,43.92969
2023-04-02T03:12:51.791Z,43.66016
2023-04-02T03:13:21.773Z,43.99121
2023-04-02T03:13:51.764Z,43.95801
2023-04-02T03:14:21.788Z,44.58496
2023-04-02T03:14:51.758Z,44.61914
2023-04-02T03:15:21.782Z,44.43457
2023-04-02T03:15:51.833Z,44.38574
2023-04-02T03:16:21.813Z,44.67285
2023-04-02T03:16:51.760Z,45.03418
2023-04-02T03:17:21.784Z,44.71582
2023-04-02T03:17:51.806Z,44.43848
2023-04-02T03:18:21.760Z,43.76465
2023-04-02T03:18:51.758Z,43.79395
2023-04-02T03:19:21.765Z,44.15332
2023-04-02T03:19:51.762Z,43.7998
2023-04-02T03:20:21.773Z,44.27246
2023-04-02T03:20:51.769Z,44.05566
2023-04-02T03:21:21.762Z,43.79785
2023-04-02T03:21:51.762Z,43.57813
2023-04-02T03:22:21.772Z,43.01465
2023-04-02T03:22:51.761Z,42.82617
2023-04-02T03:23:21.764Z,42.74902
2023-04-02T03:23:51.770Z,42.54004
2023-04-02T03:24:21.769Z,42.5957
2023-04-02T03:24:51.765Z,42.88574
2023-04-02T03:25:21.773Z,42.92871
2023-04-02T03:25:51.766Z,43.31738
2023-04-02T03:26:21.764Z,42.63672
2023-04-02T03:26:51.770Z,42.87109
2023-04-02T03:27:21.770Z,42.64746
2023-04-02T03:27:51.769Z,42.30566
2023-04-02T03:28:21.768Z,42.41309
2023-04-02T03:28:51.771Z,42.66211
2023-04-02T03:29:21.774Z,42.54492
2023-04-02T03:29:51.774Z,42.39063
2023-04-02T03:30:21.763Z,42.875
2023-04-02T03:30:51.809Z,42.75586
2023-04-02T03:31:21.763Z,42.95703
2023-04-02T03:31:51.772Z,42.67188
2023-04-02T03:32:21.772Z,42.125
2023-04-02T03:32:51.779Z,42.10059
2023-04-02T03:33:21.776Z,41.87305
2023-04-02T03:33:51.775Z,42.01953
2023-04-02T03:34:21.764Z,42.24316
2023-04-02T03:34:51.764Z,42.13477
2023-04-02T03:35:21.774Z,41.52344
2023-04-02T03:35:51.835Z,41.39844
2023-04-02T03:36:21.830Z,40.93652
2023-04-02T03:36:51.766Z,40.92871
2023-04-02T03:37:21.766Z,40.7832
2023-04-02T03:37:51.772Z,40.58594
2023-04-02T03:38:21.781Z,40.54492
2023-04-02T03:38:51.770Z,40.0752
2023-04-02T03:39:21.776Z,40.53125
2023-04-02T03:39:51.772Z,40.5166
2023-04-02T03:40:21.774Z,40.60352
2023-04-02T03:40:51.771Z,40.63965
2023-04-02T03:41:21.792Z,40.4209
2023-04-02T03:41:51.779Z,40.62988
2023-04-02T03:42:21.797Z,40.67188
2023-04-02T03:42:51.787Z,40.54395
2023-04-02T03:43:21.773Z,40.76172
2023-04-02T03:43:51.773Z,40.37305
2023-04-02T03:44:21.769Z,40.00195
2023-04-02T03:44:51.767Z,39.72852
2023-04-02T03:45:21.778Z,39.49707
2023-04-02T03:45:51.768Z,39.37598
2023-04-02T03:46:21.821Z,39.26563
2023-04-02T03:46:51.848Z,38.5957
2023-04-02T03:47:21.815Z,39.23145
2023-04-02T03:47:51.839Z,38.8418
2023-04-02T03:48:21.770Z,38.8584
2023-04-02T03:48:51.804Z,38.80664
2023-04-02T03:49:21.768Z,39.30859
2023-04-02T03:49:51.771Z,39.00488
2023-04-02T03:50:21.780Z,38.96973
2023-04-02T03:50:51.771Z,39.35352
2023-04-02T03:51:21.772Z,39.29297
2023-04-02T03:51:51.783Z,39.63965
2023-04-02T03:52:21.771Z,39.2334
2023-04-02T03:52:51.770Z,40.25488
2023-04-02T03:53:21.773Z,40.15039
2023-04-02T03:53:51.769Z,39.91211
2023-04-02T03:54:21.769Z,39.89258
2023-04-02T03:54:53.110Z,39.16504
2023-04-02T03:55:21.775Z,38.63477
2023-04-02T03:55:51.780Z,38.15332
2023-04-02T03:56:21.784Z,37.74219
2023-04-02T03:56:51.778Z,37.72656
2023-04-02T03:57:21.825Z,38.47754
2023-04-02T03:57:51.772Z,38.35156
2023-04-02T03:58:21.786Z,38.58008
2023-04-02T03:58:51.769Z,38.49023
2023-04-02T03:59:21.768Z,38.66406
2023-04-02T03:59:51.772Z,38.31543
2023-04-02T04:00:21.775Z,38.43457
2023-04-02T04:00:51.772Z,38.47754
2023-04-02T04:01:21.771Z,38.41504
2023-04-02T04:01:51.869Z,37.98145
2023-04-02T04:02:21.862Z,38.04883
2023-04-02T04:02:51.813Z,37.97754
2023-04-02T04:03:21.772Z,37.75488
2023-04-02T04:03:51.791Z,37.4834
2023-04-02T04:04:21.850Z,37.89746
2023-04-02T04:04:51.772Z,37.57422
2023-04-02T04:05:21.770Z,37.17188
2023-04-02T04:05:51.777Z,36.65918
2023-04-02T04:06:21.780Z,37.1543
2023-04-02T04:06:51.770Z,37.05762
2023-04-02T04:07:21.771Z,37.1377
2023-04-02T04:07:51.778Z,37.4375
2023-04-02T04:08:21.772Z,37.5752
2023-04-02T04:08:51.792Z,37.91699
2023-04-02T04:09:21.770Z,37.1582
2023-04-02T04:09:51.775Z,36.95898
2023-04-02T04:10:21.781Z,36.87695
2023-04-02T04:10:51.824Z,36.94727
2023-04-02T04:11:21.843Z,36.56934
2023-04-02T04:11:51.774Z,36.81348
2023-04-02T04:12:21.791Z,36.82617
2023-04-02T04:12:51.877Z,36.81445
2023-04-02T04:13:21.788Z,37.46289
2023-04-02T04:13:51.803Z,37.03516
2023-04-02T04:14:21.782Z,36.24512
2023-04-02T04:14:51.770Z,35.78906
2023-04-02T04:15:21.775Z,36.1416
2023-04-02T04:15:51.770Z,35.90527
2023-04-02T04:16:21.879Z,35.86816
2023-04-02T04:16:51.921Z,36.49023
2023-04-02T04:17:21.777Z,36.15723
2023-04-02T04:17:51.844Z,36.14844
2023-04-02T04:18:21.773Z,36.55957
2023-04-02T04:18:51.782Z,36.70605
2023-04-02T04:19:21.803Z,36.48633
2023-04-02T04:19:51.783Z,36.1084
2023-04-02T04:20:21.776Z,36.36816
2023-04-02T04:20:51.804Z,36.46484
2023-04-02T04:21:21.788Z,36.15137
2023-04-02T04:21:51.773Z,36.96289
2023-04-02T04:22:21.792Z,36.60352
2023-04-02T04:22:51.777Z,36.08887
2023-04-02T04:23:21.780Z,35.55469
2023-04-02T04:23:51.783Z,34.67383
2023-04-02T04:24:21.809Z,34.3418
2023-04-02T04:24:51.794Z,34.55957
2023-04-02T04:25:21.781Z,35.52051
2023-04-02T04:25:51.779Z,34.91113
2023-04-02T04:26:21.774Z,35.12988
2023-04-02T04:26:51.777Z,35.44336
2023-04-02T04:27:21.802Z,35.40918
2023-04-02T04:27:51.785Z,35.83008
2023-04-02T04:28:21.787Z,35.19727
2023-04-02T04:28:51.806Z,34.63477
2023-04-02T04:29:21.778Z,34.30762
2023-04-02T04:29:51.784Z,33.99316
2023-04-02T04:30:21.777Z,33.9043
2023-04-02T04:30:51.787Z,33.80273
2023-04-02T04:31:23.866Z,33.49414
2023-04-02T04:31:52.757Z,33.23047
2023-04-02T04:32:21.791Z,33.54199
2023-04-02T04:32:51.885Z,33.48926
2023-04-02T04:33:21.776Z,33.45898
2023-04-02T04:33:51.780Z,34.44629
2023-04-02T04:34:21.776Z,33.97363
2023-04-02T04:34:51.789Z,33.35449
2023-04-02T04:35:21.778Z,33.64453
2023-04-02T04:35:51.815Z,34.43457
2023-04-02T04:36:21.776Z,35.24023
2023-04-02T04:36:51.835Z,35.02637
2023-04-02T04:37:21.790Z,34.99805
2023-04-02T04:37:51.779Z,35.38477
2023-04-02T04:38:21.804Z,34.42773
2023-04-02T04:38:51.778Z,33.56641
2023-04-02T04:39:21.782Z,33.94434
2023-04-02T04:39:51.778Z,33.50684
2023-04-02T04:40:21.780Z,33.13086
2023-04-02T04:40:51.778Z,34.01465
2023-04-02T04:41:21.780Z,33.59375
2023-04-02T04:41:51.784Z,32.3252
2023-04-02T04:42:21.787Z,31.68359
2023-04-02T04:42:51.796Z,32.09961
2023-04-02T04:43:21.790Z,31.37793
2023-04-02T04:43:51.780Z,30.84277
2023-04-02T04:44:21.784Z,31.63867
2023-04-02T04:44:51.791Z,31.63281
2023-04-02T04:45:21.789Z,31.5293
2023-04-02T04:45:51.893Z,31.29102
2023-04-02T04:46:21.802Z,31.83594
2023-04-02T04:46:51.783Z,31.59277
2023-04-02T04:47:21.809Z,31.62305
2023-04-02T04:47:51.841Z,32.4209
2023-04-02T04:48:21.779Z,32.43652
2023-04-02T04:48:51.782Z,32.6416
2023-04-02T04:49:21.787Z,32.25391
2023-04-02T04:49:51.786Z,32.23145
2023-04-02T04:50:21.785Z,32.43555
2023-04-02T04:50:51.791Z,32.64844
2023-04-02T04:51:21.784Z,32.125
2023-04-02T04:51:51.793Z,31.05273
2023-04-02T04:52:21.790Z,30.61816
2023-04-02T04:52:51.785Z,29.93359
2023-04-02T04:53:21.811Z,29.6543
2023-04-02T04:53:51.788Z,29.24707
2023-04-02T04:54:21.784Z,29.36914
2023-04-02T04:54:51.783Z,28.7666
2023-04-02T04:55:21.787Z,28.25977
2023-04-02T04:55:51.796Z,28.30371
2023-04-02T04:56:21.788Z,27.89551
2023-04-02T04:56:51.807Z,28.42969
2023-04-02T04:57:21.825Z,28.31055
2023-04-02T04:57:51.786Z,27.86426
2023-04-02T04:58:21.784Z,27.77344
2023-04-02T04:58:51.790Z,28.61133
2023-04-02T04:59:21.812Z,28.46582
2023-04-02T04:59:51.784Z,28.81836
2023-04-02T05:00:21.793Z,28.86816
2023-04-02T05:00:51.787Z,29.17188
2023-04-02T05:01:21.804Z,28.79688
2023-04-02T05:01:51.860Z,29.08105
2023-04-02T05:02:21.782Z,29.21875
2023-04-02T05:02:51.833Z,29.69336
2023-04-02T05:03:21.837Z,29.19434
2023-04-02T05:03:51.786Z,29.26855
2023-04-02T05:04:21.816Z,30.46777
2023-04-02T05:04:51.853Z,30.1709
2023-04-02T05:05:21.791Z,29.69824
2023-04-02T05:05:51.791Z,29.86133
2023-04-02T05:06:21.795Z,29.45703
2023-04-02T05:06:51.785Z,29.49316
2023-04-02T05:07:21.795Z,29.4082
2023-04-02T05:07:51.785Z,28.87402
2023-04-02T05:08:21.784Z,28.56152
2023-04-02T05:08:51.788Z,28.99512
2023-04-02T05:09:21.806Z,29.16016
2023-04-02T05:09:51.787Z,28.71875
2023-04-02T05:10:21.807Z,28.44824
2023-04-02T05:10:51.784Z,28.02832
2023-04-02T05:11:21.791Z,27.88379
2023-04-02T05:11:51.795Z,27.80762
2023-04-02T05:12:21.802Z,26.27734
2023-04-02T05:12:51.792Z,25.35938
2023-04-02T05:13:21.783Z,25.00488
2023-04-02T05:13:51.789Z,24.54492
2023-04-02T05:14:21.785Z,25.3418
2023-04-02T05:14:51.792Z,24.69434
2023-04-02T05:15:21.789Z,24.2959
2023-04-02T05:15:51.873Z,23.57031
2023-04-02T05:16:21.821Z,23.10645
2023-04-02T05:16:51.790Z,23.28711
2023-04-02T05:17:21.806Z,22.80664
2023-04-02T05:17:51.808Z,23.53125
2023-04-02T05:18:21.784Z,23.24512
2023-04-02T05:18:51.785Z,23.37012
2023-04-02T05:19:21.791Z,23.50293
2023-04-02T05:19:51.793Z,23.9873
2023-04-02T05:20:21.786Z,24.42676
2023-04-02T05:20:51.789Z,24.83105
2023-04-02T05:21:21.790Z,25.21094
2023-04-02T05:21:51.790Z,25.84082
2023-04-02T05:22:21.790Z,25.79004
2023-04-02T05:22:51.792Z,24.83398
2023-04-02T05:23:21.788Z,24.80566
2023-04-02T05:23:51.794Z,25.01758
2023-04-02T05:24:21.786Z,24.48926
2023-04-02T05:24:51.789Z,23.66504
2023-04-02T05:25:21.790Z,23.76074
2023-04-02T05:25:51.800Z,24.625
2023-04-02T05:26:21.788Z,24.32324
2023-04-02T05:26:51.792Z,23.67383
2023-04-02T05:27:21.795Z,23.15625
2023-04-02T05:27:51.793Z,22.65723
2023-04-02T05:28:21.808Z,22.42578
2023-04-02T05:28:51.812Z,21.88184
2023-04-02T05:29:21.801Z,21.52637
2023-04-02T05:29:51.793Z,21.69434
2023-04-02T05:30:21.797Z,21.81152
2023-04-02T05:30:51.789Z,21.35742
2023-04-02T05:31:21.841Z,21.50488
2023-04-02T05:31:51.796Z,22.64746
2023-04-02T05:32:21.806Z,22.1416
2023-04-02T05:32:51.858Z,21.93555
2023-04-02T05:33:21.788Z,21.65137
2023-04-02T05:33:51.791Z,21.94238
2023-04-02T05:34:21.794Z,22.04883
2023-04-02T05:34:51.794Z,22.56738
2023-04-02T05:35:21.801Z,22.44922
2023-04-02T05:35:51.816Z,21.98438
2023-04-02T05:36:21.839Z,22.19238
2023-04-02T05:36:51.795Z,22.07031
2023-04-02T05:37:21.797Z,21.60645
2023-04-02T05:37:51.792Z,21.62012
2023-04-02T05:38:21.819Z,22.26172
2023-04-02T05:38:51.797Z,21.22949
2023-04-02T05:39:21.803Z,20.91504
2023-04-02T05:39:51.805Z,20.97754
2023-04-02T05:40:21.801Z,20.70605
2023-04-02T05:40:51.792Z,20.1709
2023-04-02T05:41:21.807Z,19.51465
2023-04-02T05:41:51.796Z,19.12793
2023-04-02T05:42:21.801Z,19.33789
2023-04-02T05:42:51.801Z,19.58789
2023-04-02T05:43:21.799Z,19.30859
2023-04-02T05:43:51.801Z,19.66992
2023-04-02T05:44:21.807Z,19.23828
2023-04-02T05:44:51.800Z,18.2793
2023-04-02T05:45:21.810Z,17.7959
2023-04-02T05:45:51.802Z,18.42871
2023-04-02T05:46:21.813Z,18.59863
2023-04-02T05:46:51.857Z,17.86328
2023-04-02T05:47:21.843Z,17.24121
2023-04-02T05:47:51.874Z,16.86133
2023-04-02T05:48:21.802Z,16.39551
2023-04-02T05:48:51.819Z,15.36133
2023-04-02T05:49:21.807Z,14.9375
2023-04-02T05:49:51.828Z,14.36328
2023-04-02T05:50:21.804Z,14.5332
2023-04-02T05:50:51.798Z,14.34473
2023-04-02T05:51:21.803Z,14.65527
2023-04-02T05:51:51.807Z,14.88574
2023-04-02T05:52:21.799Z,15.47266
2023-04-02T05:52:51.821Z,16.60742
2023-04-02T05:53:21.806Z,16.09766
2023-04-02T05:53:51.808Z,15.70801